sensor_id;sensor_type;location;lat;lon;timestamp;pressure;altitude;pressure_sealevel;temperature;humidity
45323;BME280;31382;50.200;8.674;2023-04-07T00:01:03;100336.75;;;9.60;69.81
45323;BME280;31382;50.200;8.674;2023-04-07T00:06:04;100330.03;;;9.64;70.06
45323;BME280;31382;50.200;8.674;2023-04-07T00:11:07;100326.69;;;9.62;69.76
45323;BME280;31382;50.200;8.674;2023-04-07T00:16:10;100326.84;;;9.61;70.09
45323;BME280;31382;50.200;8.674;2023-04-07T00:21:14;100314.94;;;9.63;70.32
45323;BME280;31382;50.200;8.674;2023-04-07T00:26:21;100320.81;;;9.59;70.67
45323;BME280;31382;50.200;8.674;2023-04-07T00:31:24;100318.94;;;9.67;70.64
45323;BME280;31382;50.200;8.674;2023-04-07T00:36:31;100305.19;;;9.70;70.81
45323;BME280;31382;50.200;8.674;2023-04-07T00:41:38;100297.84;;;9.64;70.83
45323;BME280;31382;50.200;8.674;2023-04-07T00:46:40;100292.97;;;9.68;71.23
45323;BME280;31382;50.200;8.674;2023-04-07T00:51:43;100290.78;;;9.63;71.26
45323;BME280;31382;50.200;8.674;2023-04-07T00:56:46;100284.41;;;9.64;71.20
45323;BME280;31382;50.200;8.674;2023-04-07T01:01:59;100274.69;;;9.63;71.65
45323;BME280;31382;50.200;8.674;2023-04-07T01:07:09;100273.03;;;9.54;71.72
45323;BME280;31382;50.200;8.674;2023-04-07T01:12:23;100272.69;;;9.57;71.84
45323;BME280;31382;50.200;8.674;2023-04-07T01:17:31;100265.31;;;9.59;71.92
45323;BME280;31382;50.200;8.674;2023-04-07T01:22:45;100253.25;;;9.55;72.12
45323;BME280;31382;50.200;8.674;2023-04-07T01:33:07;100242.50;;;9.55;72.40
45323;BME280;31382;50.200;8.674;2023-04-07T01:38:14;100234.44;;;9.55;72.42
45323;BME280;31382;50.200;8.674;2023-04-07T01:43:17;100241.50;;;9.56;72.59
45323;BME280;31382;50.200;8.674;2023-04-07T01:48:19;100236.81;;;9.58;72.25
45323;BME280;31382;50.200;8.674;2023-04-07T01:53:22;100233.63;;;9.55;72.63
45323;BME280;31382;50.200;8.674;2023-04-07T01:58:23;100234.47;;;9.47;73.38
45323;BME280;31382;50.200;8.674;2023-04-07T02:04:00;100225.44;;;9.40;73.49
45323;BME280;31382;50.200;8.674;2023-04-07T02:09:06;100225.94;;;9.43;73.15
45323;BME280;31382;50.200;8.674;2023-04-07T02:14:12;100222.41;;;9.43;73.46
45323;BME280;31382;50.200;8.674;2023-04-07T02:19:14;100221.41;;;9.44;73.53
45323;BME280;31382;50.200;8.674;2023-04-07T02:24:18;100217.88;;;9.43;73.14
45323;BME280;31382;50.200;8.674;2023-04-07T02:29:22;100219.22;;;9.47;73.58
45323;BME280;31382;50.200;8.674;2023-04-07T02:34:23;100213.50;;;9.50;73.37
45323;BME280;31382;50.200;8.674;2023-04-07T02:39:24;100205.50;;;9.42;73.31
45323;BME280;31382;50.200;8.674;2023-04-07T02:44:26;100215.06;;;9.37;73.57
45323;BME280;31382;50.200;8.674;2023-04-07T02:49:27;100208.88;;;9.36;74.20
45323;BME280;31382;50.200;8.674;2023-04-07T02:54:29;100214.88;;;9.30;73.78
45323;BME280;31382;50.200;8.674;2023-04-07T02:59:30;100203.31;;;9.38;73.61
45323;BME280;31382;50.200;8.674;2023-04-07T03:04:31;100207.00;;;9.37;73.76
45323;BME280;31382;50.200;8.674;2023-04-07T03:09:33;100202.66;;;9.27;74.37
45323;BME280;31382;50.200;8.674;2023-04-07T03:14:35;100199.66;;;9.30;74.08
45323;BME280;31382;50.200;8.674;2023-04-07T03:19:36;100187.75;;;9.25;74.34
45323;BME280;31382;50.200;8.674;2023-04-07T03:24:37;100183.88;;;9.27;74.19
45323;BME280;31382;50.200;8.674;2023-04-07T03:29:40;100190.59;;;9.23;74.58
45323;BME280;31382;50.200;8.674;2023-04-07T03:34:42;100180.25;;;9.20;74.36
45323;BME280;31382;50.200;8.674;2023-04-07T03:39:43;100181.41;;;9.18;74.75
45323;BME280;31382;50.200;8.674;2023-04-07T03:44:44;100178.56;;;9.19;74.56
45323;BME280;31382;50.200;8.674;2023-04-07T03:49:46;100177.38;;;9.22;74.22
45323;BME280;31382;50.200;8.674;2023-04-07T03:54:47;100187.94;;;9.23;74.63
45323;BME280;31382;50.200;8.674;2023-04-07T03:59:49;100180.88;;;9.30;74.31
45323;BME280;31382;50.200;8.674;2023-04-07T04:04:51;100183.19;;;9.33;74.62
45323;BME280;31382;50.200;8.674;2023-04-07T04:09:53;100181.69;;;9.39;74.25
45323;BME280;31382;50.200;8.674;2023-04-07T04:14:54;100172.13;;;9.37;74.55
45323;BME280;31382;50.200;8.674;2023-04-07T04:19:56;100179.34;;;9.36;74.64
45323;BME280;31382;50.200;8.674;2023-04-07T04:30:36;100174.13;;;9.43;74.42
45323;BME280;31382;50.200;8.674;2023-04-07T04:35:39;100179.16;;;9.46;74.64
45323;BME280;31382;50.200;8.674;2023-04-07T04:40:42;100182.50;;;9.48;74.29
45323;BME280;31382;50.200;8.674;2023-04-07T04:45:46;100184.84;;;9.43;74.85
45323;BME280;31382;50.200;8.674;2023-04-07T04:50:49;100187.72;;;9.41;74.55
45323;BME280;31382;50.200;8.674;2023-04-07T04:55:51;100183.53;;;9.39;74.96
45323;BME280;31382;50.200;8.674;2023-04-07T05:00:53;100186.06;;;9.40;74.67
45323;BME280;31382;50.200;8.674;2023-04-07T05:05:58;100189.19;;;9.44;74.49
45323;BME280;31382;50.200;8.674;2023-04-07T05:10:59;100191.22;;;9.42;74.60
45323;BME280;31382;50.200;8.674;2023-04-07T05:16:01;100189.91;;;9.38;74.65
45323;BME280;31382;50.200;8.674;2023-04-07T05:21:02;100194.09;;;9.40;75.10
45323;BME280;31382;50.200;8.674;2023-04-07T05:26:04;100187.88;;;9.40;74.82
45323;BME280;31382;50.200;8.674;2023-04-07T05:31:05;100179.16;;;9.46;74.55
45323;BME280;31382;50.200;8.674;2023-04-07T05:36:08;100186.34;;;9.45;74.66
45323;BME280;31382;50.200;8.674;2023-04-07T05:41:09;100177.97;;;9.48;74.61
45323;BME280;31382;50.200;8.674;2023-04-07T05:46:11;100185.50;;;9.53;74.63
45323;BME280;31382;50.200;8.674;2023-04-07T05:51:12;100186.19;;;9.47;75.09
45323;BME280;31382;50.200;8.674;2023-04-07T05:56:14;100189.34;;;9.59;74.88
45323;BME280;31382;50.200;8.674;2023-04-07T06:01:16;100191.69;;;9.53;75.11
45323;BME280;31382;50.200;8.674;2023-04-07T06:06:17;100182.28;;;9.58;75.02
45323;BME280;31382;50.200;8.674;2023-04-07T06:11:19;100185.28;;;9.63;74.59
45323;BME280;31382;50.200;8.674;2023-04-07T06:16:21;100189.81;;;9.62;74.80
45323;BME280;31382;50.200;8.674;2023-04-07T06:21:22;100189.13;;;9.68;74.89
45323;BME280;31382;50.200;8.674;2023-04-07T06:26:25;100191.44;;;9.71;74.59
45323;BME280;31382;50.200;8.674;2023-04-07T06:31:27;100188.09;;;9.78;74.86
45323;BME280;31382;50.200;8.674;2023-04-07T06:36:29;100191.56;;;9.86;74.65
45323;BME280;31382;50.200;8.674;2023-04-07T06:41:30;100186.41;;;9.77;75.33
45323;BME280;31382;50.200;8.674;2023-04-07T06:46:32;100189.09;;;9.77;75.29
45323;BME280;31382;50.200;8.674;2023-04-07T06:51:34;100199.50;;;9.80;74.91
45323;BME280;31382;50.200;8.674;2023-04-07T06:56:35;100199.28;;;9.81;75.12
45323;BME280;31382;50.200;8.674;2023-04-07T07:01:37;100199.28;;;9.89;74.91
45323;BME280;31382;50.200;8.674;2023-04-07T07:06:38;100200.41;;;9.95;74.95
45323;BME280;31382;50.200;8.674;2023-04-07T07:11:39;100203.28;;;9.93;75.12
45323;BME280;31382;50.200;8.674;2023-04-07T07:16:41;100199.94;;;9.91;75.19
45323;BME280;31382;50.200;8.674;2023-04-07T07:21:42;100204.44;;;9.91;75.21
45323;BME280;31382;50.200;8.674;2023-04-07T07:26:44;100199.22;;;9.98;75.30
45323;BME280;31382;50.200;8.674;2023-04-07T07:31:46;100203.41;;;10.00;75.16
45323;BME280;31382;50.200;8.674;2023-04-07T07:36:47;100209.22;;;10.12;75.41
45323;BME280;31382;50.200;8.674;2023-04-07T07:41:48;100205.81;;;10.18;75.38
45323;BME280;31382;50.200;8.674;2023-04-07T07:46:51;100213.00;;;10.26;74.99
45323;BME280;31382;50.200;8.674;2023-04-07T07:51:53;100212.16;;;10.25;75.22
45323;BME280;31382;50.200;8.674;2023-04-07T07:56:55;100214.16;;;10.31;74.98
45323;BME280;31382;50.200;8.674;2023-04-07T08:02:00;100219.00;;;10.36;75.31
45323;BME280;31382;50.200;8.674;2023-04-07T08:07:02;100232.94;;;10.40;75.12
45323;BME280;31382;50.200;8.674;2023-04-07T08:12:04;100230.56;;;10.37;75.11
45323;BME280;31382;50.200;8.674;2023-04-07T08:17:05;100233.16;;;10.22;75.27
45323;BME280;31382;50.200;8.674;2023-04-07T08:22:07;100236.72;;;10.14;75.42
45323;BME280;31382;50.200;8.674;2023-04-07T08:27:08;100247.59;;;10.21;75.51
45323;BME280;31382;50.200;8.674;2023-04-07T08:32:10;100241.03;;;10.31;74.99
45323;BME280;31382;50.200;8.674;2023-04-07T08:37:11;100242.53;;;10.34;74.99
45323;BME280;31382;50.200;8.674;2023-04-07T08:42:13;100235.44;;;10.41;75.20
45323;BME280;31382;50.200;8.674;2023-04-07T08:47:16;100247.34;;;10.47;75.10
45323;BME280;31382;50.200;8.674;2023-04-07T08:52:21;100254.69;;;10.53;75.75
45323;BME280;31382;50.200;8.674;2023-04-07T08:57:23;100257.47;;;10.60;75.84
45323;BME280;31382;50.200;8.674;2023-04-07T09:02:25;100252.34;;;10.73;75.72
45323;BME280;31382;50.200;8.674;2023-04-07T09:07:27;100265.03;;;10.64;76.25
45323;BME280;31382;50.200;8.674;2023-04-07T09:12:30;100257.47;;;10.60;76.25
45323;BME280;31382;50.200;8.674;2023-04-07T09:17:31;100271.72;;;10.68;76.22
45323;BME280;31382;50.200;8.674;2023-04-07T09:22:34;100276.91;;;10.70;75.93
45323;BME280;31382;50.200;8.674;2023-04-07T09:27:36;100272.31;;;10.79;75.88
45323;BME280;31382;50.200;8.674;2023-04-07T09:32:38;100267.34;;;10.90;75.36
45323;BME280;31382;50.200;8.674;2023-04-07T09:37:39;100273.25;;;10.86;75.75
45323;BME280;31382;50.200;8.674;2023-04-07T09:42:45;100269.66;;;10.94;75.28
45323;BME280;31382;50.200;8.674;2023-04-07T09:47:48;100277.97;;;11.07;74.88
45323;BME280;31382;50.200;8.674;2023-04-07T09:52:51;100280.22;;;11.18;74.79
45323;BME280;31382;50.200;8.674;2023-04-07T09:57:52;100280.22;;;11.18;74.89
45323;BME280;31382;50.200;8.674;2023-04-07T10:02:56;100265.00;;;11.25;74.74
45323;BME280;31382;50.200;8.674;2023-04-07T10:07:59;100272.56;;;11.30;74.84
45323;BME280;31382;50.200;8.674;2023-04-07T10:13:04;100274.22;;;11.31;74.92
45323;BME280;31382;50.200;8.674;2023-04-07T10:18:07;100278.03;;;11.37;74.96
45323;BME280;31382;50.200;8.674;2023-04-07T10:23:19;100289.19;;;11.34;74.88
45323;BME280;31382;50.200;8.674;2023-04-07T10:28:23;100292.97;;;11.39;75.12
45323;BME280;31382;50.200;8.674;2023-04-07T10:33:50;100297.19;;;11.42;74.58
45323;BME280;31382;50.200;8.674;2023-04-07T10:50:17;100303.28;;;11.36;75.09
45323;BME280;31382;50.200;8.674;2023-04-07T10:55:40;100314.06;;;11.36;75.34
45323;BME280;31382;50.200;8.674;2023-04-07T11:06:11;100317.72;;;11.58;75.16
45323;BME280;31382;50.200;8.674;2023-04-07T11:11:39;100327.19;;;11.54;75.36
45323;BME280;31382;50.200;8.674;2023-04-07T11:16:42;100320.31;;;11.66;74.89
45323;BME280;31382;50.200;8.674;2023-04-07T11:21:45;100318.84;;;11.78;75.06
45323;BME280;31382;50.200;8.674;2023-04-07T11:26:46;100325.34;;;11.84;74.51
45323;BME280;31382;50.200;8.674;2023-04-07T11:31:50;100328.38;;;11.89;75.13
45323;BME280;31382;50.200;8.674;2023-04-07T11:36:52;100325.34;;;11.84;74.83
45323;BME280;31382;50.200;8.674;2023-04-07T11:41:54;100329.34;;;11.88;74.64
45323;BME280;31382;50.200;8.674;2023-04-07T11:46:57;100340.13;;;11.88;74.78
45323;BME280;31382;50.200;8.674;2023-04-07T11:52:01;100339.41;;;11.94;74.69
45323;BME280;31382;50.200;8.674;2023-04-07T11:57:03;100345.34;;;11.89;74.91
45323;BME280;31382;50.200;8.674;2023-04-07T12:02:04;100347.53;;;11.86;74.92
45323;BME280;31382;50.200;8.674;2023-04-07T12:07:08;100339.59;;;12.07;74.71
45323;BME280;31382;50.200;8.674;2023-04-07T12:12:10;100348.53;;;12.23;74.40
45323;BME280;31382;50.200;8.674;2023-04-07T12:17:22;100349.53;;;12.22;74.08
45323;BME280;31382;50.200;8.674;2023-04-07T12:22:23;100360.84;;;12.32;74.65
45323;BME280;31382;50.200;8.674;2023-04-07T12:27:25;100354.63;;;12.46;74.77
45323;BME280;31382;50.200;8.674;2023-04-07T12:32:42;100358.41;;;12.67;74.70
45323;BME280;31382;50.200;8.674;2023-04-07T12:37:44;100358.59;;;13.02;74.28
45323;BME280;31382;50.200;8.674;2023-04-07T12:42:48;100350.09;;;13.26;73.86
45323;BME280;31382;50.200;8.674;2023-04-07T12:47:50;100356.84;;;13.59;73.33
45323;BME280;31382;50.200;8.674;2023-04-07T12:52:51;100355.31;;;13.78;72.27
45323;BME280;31382;50.200;8.674;2023-04-07T12:57:54;100354.53;;;13.84;72.13
45323;BME280;31382;50.200;8.674;2023-04-07T13:02:55;100349.81;;;13.93;71.76
45323;BME280;31382;50.200;8.674;2023-04-07T13:07:57;100356.69;;;13.95;71.44
45323;BME280;31382;50.200;8.674;2023-04-07T13:12:59;100356.69;;;13.95;70.84
45323;BME280;31382;50.200;8.674;2023-04-07T13:18:01;100358.75;;;13.93;70.17
45323;BME280;31382;50.200;8.674;2023-04-07T13:23:02;100357.38;;;13.76;70.36
45323;BME280;31382;50.200;8.674;2023-04-07T13:28:10;100361.88;;;13.40;70.80
45323;BME280;31382;50.200;8.674;2023-04-07T13:33:12;100360.66;;;13.21;70.60
45323;BME280;31382;50.200;8.674;2023-04-07T13:38:13;100369.63;;;13.07;70.51
45323;BME280;31382;50.200;8.674;2023-04-07T13:43:14;100367.81;;;12.93;71.02
45323;BME280;31382;50.200;8.674;2023-04-07T13:48:18;100370.44;;;12.86;71.06
45323;BME280;31382;50.200;8.674;2023-04-07T13:53:19;100372.44;;;12.99;70.75
45323;BME280;31382;50.200;8.674;2023-04-07T13:58:21;100360.09;;;13.11;70.99
45323;BME280;31382;50.200;8.674;2023-04-07T14:03:23;100366.09;;;13.28;70.75
45323;BME280;31382;50.200;8.674;2023-04-07T14:08:25;100360.53;;;13.51;70.27
45323;BME280;31382;50.200;8.674;2023-04-07T14:13:26;100366.41;;;13.61;70.24
45323;BME280;31382;50.200;8.674;2023-04-07T14:18:27;100365.22;;;13.42;70.78
45323;BME280;31382;50.200;8.674;2023-04-07T14:23:29;100371.91;;;13.46;70.33
45323;BME280;31382;50.200;8.674;2023-04-07T14:28:38;100363.97;;;13.66;69.87
45323;BME280;31382;50.200;8.674;2023-04-07T14:33:43;100366.59;;;13.88;69.90
45323;BME280;31382;50.200;8.674;2023-04-07T14:38:45;100372.03;;;14.23;69.07
45323;BME280;31382;50.200;8.674;2023-04-07T14:43:47;100365.03;;;14.35;69.54
45323;BME280;31382;50.200;8.674;2023-04-07T14:48:54;100365.44;;;14.74;69.16
45323;BME280;31382;50.200;8.674;2023-04-07T14:53:57;100355.56;;;15.47;68.11
45323;BME280;31382;50.200;8.674;2023-04-07T14:58:58;100356.81;;;15.85;66.72
45323;BME280;31382;50.200;8.674;2023-04-07T15:04:00;100366.00;;;15.77;66.20
45323;BME280;31382;50.200;8.674;2023-04-07T15:09:01;100373.94;;;15.52;65.94
45323;BME280;31382;50.200;8.674;2023-04-07T15:14:02;100376.81;;;15.31;65.17
45323;BME280;31382;50.200;8.674;2023-04-07T15:19:05;100372.63;;;15.21;64.84
45323;BME280;31382;50.200;8.674;2023-04-07T15:24:07;100377.00;;;15.22;64.24
45323;BME280;31382;50.200;8.674;2023-04-07T15:29:08;100385.34;;;15.21;63.73
45323;BME280;31382;50.200;8.674;2023-04-07T15:34:10;100382.59;;;15.14;63.31
45323;BME280;31382;50.200;8.674;2023-04-07T15:39:11;100393.81;;;14.91;63.50
45323;BME280;31382;50.200;8.674;2023-04-07T15:44:16;100382.88;;;14.64;63.78
45323;BME280;31382;50.200;8.674;2023-04-07T15:49:19;100393.78;;;14.43;63.99
45323;BME280;31382;50.200;8.674;2023-04-07T15:54:25;100398.72;;;14.33;64.38
45323;BME280;31382;50.200;8.674;2023-04-07T15:59:26;100400.13;;;14.22;64.94
45323;BME280;31382;50.200;8.674;2023-04-07T16:04:30;100402.13;;;14.13;64.93
45323;BME280;31382;50.200;8.674;2023-04-07T16:09:32;100402.94;;;14.07;64.79
45323;BME280;31382;50.200;8.674;2023-04-07T16:14:34;100410.47;;;13.90;65.40
45323;BME280;31382;50.200;8.674;2023-04-07T16:19:36;100405.88;;;13.84;65.62
45323;BME280;31382;50.200;8.674;2023-04-07T16:24:37;100412.50;;;13.81;65.36
45323;BME280;31382;50.200;8.674;2023-04-07T16:29:39;100413.47;;;13.74;65.52
45323;BME280;31382;50.200;8.674;2023-04-07T16:34:40;100418.19;;;13.65;65.96
45323;BME280;31382;50.200;8.674;2023-04-07T16:39:41;100420.03;;;13.64;66.20
45323;BME280;31382;50.200;8.674;2023-04-07T16:44:43;100421.88;;;13.57;66.19
45323;BME280;31382;50.200;8.674;2023-04-07T16:49:44;100429.06;;;13.50;66.14
45323;BME280;31382;50.200;8.674;2023-04-07T16:54:46;100435.75;;;13.54;66.28
45323;BME280;31382;50.200;8.674;2023-04-07T16:59:47;100440.63;;;13.44;66.16
45323;BME280;31382;50.200;8.674;2023-04-07T17:04:48;100442.88;;;13.40;66.65
45323;BME280;31382;50.200;8.674;2023-04-07T17:09:50;100444.63;;;13.48;66.26
45323;BME280;31382;50.200;8.674;2023-04-07T17:14:51;100442.75;;;13.48;66.07
45323;BME280;31382;50.200;8.674;2023-04-07T17:19:53;100459.34;;;13.45;66.49
45323;BME280;31382;50.200;8.674;2023-04-07T17:24:57;100461.22;;;13.45;66.52
45323;BME280;31382;50.200;8.674;2023-04-07T17:29:58;100467.59;;;13.37;66.47
45323;BME280;31382;50.200;8.674;2023-04-07T17:35:00;100466.53;;;13.38;66.52
45323;BME280;31382;50.200;8.674;2023-04-07T17:40:01;100474.03;;;13.21;66.55
45323;BME280;31382;50.200;8.674;2023-04-07T17:45:05;100481.38;;;13.13;66.98
45323;BME280;31382;50.200;8.674;2023-04-07T17:50:07;100484.66;;;13.08;67.06
45323;BME280;31382;50.200;8.674;2023-04-07T17:55:09;100494.81;;;13.06;66.91
45323;BME280;31382;50.200;8.674;2023-04-07T18:00:11;100500.97;;;13.00;67.15
45323;BME280;31382;50.200;8.674;2023-04-07T18:05:12;100508.59;;;12.96;67.16
45323;BME280;31382;50.200;8.674;2023-04-07T18:10:14;100511.38;;;12.88;66.75
45323;BME280;31382;50.200;8.674;2023-04-07T18:15:16;100512.03;;;12.90;67.13
45323;BME280;31382;50.200;8.674;2023-04-07T18:20:18;100521.41;;;12.79;66.91
45323;BME280;31382;50.200;8.674;2023-04-07T18:25:20;100528.59;;;12.72;67.43
45323;BME280;31382;50.200;8.674;2023-04-07T18:30:22;100530.34;;;12.65;67.35
45323;BME280;31382;50.200;8.674;2023-04-07T18:35:23;100528.56;;;12.57;67.08
45323;BME280;31382;50.200;8.674;2023-04-07T18:40:25;100537.78;;;12.48;67.12
45323;BME280;31382;50.200;8.674;2023-04-07T18:45:29;100551.31;;;12.40;67.82
45323;BME280;31382;50.200;8.674;2023-04-07T18:50:31;100555.91;;;12.39;67.67
45323;BME280;31382;50.200;8.674;2023-04-07T18:55:33;100567.22;;;12.35;67.26
45323;BME280;31382;50.200;8.674;2023-04-07T19:00:35;100577.78;;;12.21;67.94
45323;BME280;31382;50.200;8.674;2023-04-07T19:05:37;100581.94;;;12.09;67.73
45323;BME280;31382;50.200;8.674;2023-04-07T19:10:39;100587.06;;;11.96;67.83
45323;BME280;31382;50.200;8.674;2023-04-07T19:15:41;100588.66;;;11.82;68.27
45323;BME280;31382;50.200;8.674;2023-04-07T19:20:46;100595.94;;;11.73;68.38
45323;BME280;31382;50.200;8.674;2023-04-07T19:25:47;100593.22;;;11.50;68.72
45323;BME280;31382;50.200;8.674;2023-04-07T19:30:49;100605.59;;;11.28;68.82
45323;BME280;31382;50.200;8.674;2023-04-07T19:35:50;100602.56;;;11.23;68.95
45323;BME280;31382;50.200;8.674;2023-04-07T19:40:52;100599.78;;;11.08;69.16
45323;BME280;31382;50.200;8.674;2023-04-07T19:45:53;100605.88;;;10.85;69.33
45323;BME280;31382;50.200;8.674;2023-04-07T19:50:55;100614.97;;;10.68;69.78
45323;BME280;31382;50.200;8.674;2023-04-07T19:55:57;100616.16;;;10.65;69.73
45323;BME280;31382;50.200;8.674;2023-04-07T20:00:58;100622.22;;;10.67;69.83
45323;BME280;31382;50.200;8.674;2023-04-07T20:06:00;100615.13;;;10.83;69.35
45323;BME280;31382;50.200;8.674;2023-04-07T20:11:01;100619.16;;;10.87;69.44
45323;BME280;31382;50.200;8.674;2023-04-07T20:16:03;100626.41;;;10.78;69.81
45323;BME280;31382;50.200;8.674;2023-04-07T20:21:04;100632.63;;;10.79;69.81
45323;BME280;31382;50.200;8.674;2023-04-07T20:26:06;100631.47;;;10.65;70.29
45323;BME280;31382;50.200;8.674;2023-04-07T20:31:09;100630.44;;;10.58;70.18
45323;BME280;31382;50.200;8.674;2023-04-07T20:36:10;100632.66;;;10.38;70.62
45323;BME280;31382;50.200;8.674;2023-04-07T20:41:13;100634.97;;;10.32;70.94
45323;BME280;31382;50.200;8.674;2023-04-07T20:46:15;100639.50;;;10.24;71.13
45323;BME280;31382;50.200;8.674;2023-04-07T20:51:16;100650.44;;;10.30;70.93
45323;BME280;31382;50.200;8.674;2023-04-07T20:56:17;100644.22;;;10.30;71.02
45323;BME280;31382;50.200;8.674;2023-04-07T21:01:19;100648.25;;;10.42;70.60
45323;BME280;31382;50.200;8.674;2023-04-07T21:06:20;100645.41;;;10.44;70.73
45323;BME280;31382;50.200;8.674;2023-04-07T21:11:22;100643.56;;;10.36;71.21
45323;BME280;31382;50.200;8.674;2023-04-07T21:16:23;100653.97;;;10.31;70.95
45323;BME280;31382;50.200;8.674;2023-04-07T21:21:25;100651.63;;;10.44;70.73
45323;BME280;31382;50.200;8.674;2023-04-07T21:26:26;100648.44;;;10.41;70.60
45323;BME280;31382;50.200;8.674;2023-04-07T21:31:28;100650.75;;;10.27;71.21
45323;BME280;31382;50.200;8.674;2023-04-07T21:36:29;100656.59;;;10.23;71.01
45323;BME280;31382;50.200;8.674;2023-04-07T21:41:32;100656.13;;;10.19;71.18
45323;BME280;31382;50.200;8.674;2023-04-07T21:46:33;100646.53;;;10.17;71.12
45323;BME280;31382;50.200;8.674;2023-04-07T21:51:34;100656.28;;;10.18;70.75
45323;BME280;31382;50.200;8.674;2023-04-07T21:56:37;100653.91;;;10.23;70.94
45323;BME280;31382;50.200;8.674;2023-04-07T22:01:38;100652.97;;;10.32;70.64
45323;BME280;31382;50.200;8.674;2023-04-07T22:06:40;100664.91;;;10.38;70.54
45323;BME280;31382;50.200;8.674;2023-04-07T22:11:41;100669.41;;;10.29;70.59
45323;BME280;31382;50.200;8.674;2023-04-07T22:16:43;100666.22;;;10.34;70.62
45323;BME280;31382;50.200;8.674;2023-04-07T22:21:44;100673.78;;;10.38;70.51
45323;BME280;31382;50.200;8.674;2023-04-07T22:26:45;100673.47;;;10.33;70.63
45323;BME280;31382;50.200;8.674;2023-04-07T22:31:47;100674.81;;;10.37;70.25
45323;BME280;31382;50.200;8.674;2023-04-07T22:36:48;100682.38;;;10.42;70.34
45323;BME280;31382;50.200;8.674;2023-04-07T22:41:50;100684.53;;;10.46;70.24
45323;BME280;31382;50.200;8.674;2023-04-07T22:46:51;100681.53;;;10.49;69.93
45323;BME280;31382;50.200;8.674;2023-04-07T22:51:53;100683.03;;;10.52;69.93
45323;BME280;31382;50.200;8.674;2023-04-07T22:56:55;100679.00;;;10.48;70.38
45323;BME280;31382;50.200;8.674;2023-04-07T23:01:57;100684.53;;;10.38;70.46
45323;BME280;31382;50.200;8.674;2023-04-07T23:06:59;100686.34;;;10.21;70.88
45323;BME280;31382;50.200;8.674;2023-04-07T23:12:00;100685.31;;;10.22;70.79
45323;BME280;31382;50.200;8.674;2023-04-07T23:17:02;100693.28;;;10.40;70.30
45323;BME280;31382;50.200;8.674;2023-04-07T23:22:03;100704.69;;;10.42;70.18
45323;BME280;31382;50.200;8.674;2023-04-07T23:27:04;100711.09;;;10.41;70.05
45323;BME280;31382;50.200;8.674;2023-04-07T23:32:06;100696.31;;;10.45;69.92
45323;BME280;31382;50.200;8.674;2023-04-07T23:37:08;100700.19;;;10.51;69.62
45323;BME280;31382;50.200;8.674;2023-04-07T23:42:09;100705.56;;;10.51;69.54
45323;BME280;31382;50.200;8.674;2023-04-07T23:47:10;100703.53;;;10.45;69.63
45323;BME280;31382;50.200;8.674;2023-04-07T23:52:12;100710.72;;;10.36;69.24
45323;BME280;31382;50.200;8.674;2023-04-07T23:57:15;100709.69;;;10.29;69.55
